Time;durP1;ratioP1;P1;durP2;ratioP2;P2;SDS_P1;SDS_P2;PMS_P1;PMS_P2;Temp;Humidity;BMP_temperature;BMP_pressure;BME280_temperature;BME280_humidity;BME280_pressure;Samples;Min_cycle;Max_cycle;Signal;HPM_P1;HPM_P2
2022/09/12 00:01:51;;;;;;;11.00;9.90;;;15.90;99.90;;;;;;5085254;28;20111;-74
2022/09/12 00:04:17;;;;;;;12.52;10.50;;;15.90;99.90;;;;;;5081338;28;20116;-75
2022/09/12 00:06:43;;;;;;;17.73;10.13;;;15.90;99.90;;;;;;5089358;28;20044;-73
2022/09/12 00:09:11;;;;;;;11.52;10.25;;;15.80;99.90;;;;;;5071380;28;20055;-74
2022/09/12 00:11:39;;;;;;;12.18;10.98;;;15.80;99.90;;;;;;5072278;28;20479;-74
2022/09/12 00:14:06;;;;;;;12.80;10.63;;;15.80;99.90;;;;;;5071769;28;20147;-74
2022/09/12 00:16:33;;;;;;;12.55;11.10;;;15.80;99.90;;;;;;5076256;28;20041;-73
2022/09/12 00:19:00;;;;;;;14.25;10.55;;;15.80;99.90;;;;;;5075732;28;20040;-73
2022/09/12 00:21:26;;;;;;;;;;;15.80;99.90;;;;;;5084797;28;20051;-74
2022/09/12 00:23:52;;;;;;;12.18;10.00;;;15.80;99.90;;;;;;5076268;28;19916;-74
2022/09/12 00:26:19;;;;;;;11.95;10.77;;;15.70;99.90;;;;;;5075922;28;20085;-74
2022/09/12 00:28:46;;;;;;;12.35;10.82;;;15.70;99.90;;;;;;5036042;28;20111;-74
2022/09/12 00:31:12;;;;;;;;;;;15.70;99.90;;;;;;5087138;28;20036;-74
2022/09/12 00:33:39;;;;;;;14.48;12.40;;;15.70;99.90;;;;;;5080873;28;20017;-74
2022/09/12 00:36:08;;;;;;;12.80;10.93;;;15.60;99.90;;;;;;5083859;28;20504;-74
2022/09/12 00:38:37;;;;;;;13.18;11.40;;;15.60;99.90;;;;;;5074709;28;20036;-74
2022/09/12 00:41:04;;;;;;;12.02;10.80;;;15.60;99.90;;;;;;5071262;28;20051;-74
2022/09/12 00:43:30;;;;;;;12.07;10.85;;;15.60;99.90;;;;;;5085954;28;20105;-74
2022/09/12 00:45:57;;;;;;;13.10;11.70;;;15.50;99.90;;;;;;5088725;28;20044;-74
2022/09/12 00:48:31;;;;;;;15.00;12.40;;;15.50;99.90;;;;;;5083697;28;20082;-74
2022/09/12 00:50:57;;;;;;;14.50;13.00;;;15.50;99.90;;;;;;5069260;28;20123;-74
2022/09/12 00:53:23;;;;;;;;;;;15.50;99.90;;;;;;5064898;28;20139;-74
2022/09/12 00:55:51;;;;;;;14.07;12.60;;;15.40;99.90;;;;;;5075344;28;20491;-74
2022/09/12 00:58:48;;;;;;;13.88;12.48;;;15.40;99.90;;;;;;5084544;28;20474;-74
2022/09/12 01:01:14;;;;;;;14.35;12.85;;;15.40;99.90;;;;;;5082470;28;20048;-74
2022/09/12 01:03:39;;;;;;;14.25;12.85;;;15.40;99.90;;;;;;5092323;28;20040;-74
2022/09/12 01:06:14;;;;;;;15.70;13.18;;;15.40;99.90;;;;;;5081192;28;20086;-74
2022/09/12 01:08:43;;;;;;;14.73;13.32;;;15.30;99.90;;;;;;5071153;28;20481;-74
2022/09/12 01:11:11;;;;;;;15.20;13.63;;;15.40;99.90;;;;;;5084683;28;20074;-74
2022/09/12 01:13:36;;;;;;;17.75;15.30;;;15.30;99.90;;;;;;5080131;28;20044;-74
2022/09/12 01:16:04;;;;;;;17.10;15.02;;;15.30;99.90;;;;;;5082979;28;20051;-73
2022/09/12 01:18:47;;;;;;;16.83;14.73;;;15.30;99.90;;;;;;5089061;28;20044;-75
2022/09/12 01:21:34;;;;;;;18.05;15.65;;;15.30;99.90;;;;;;5083830;28;20059;-75
2022/09/12 01:24:03;;;;;;;;;;;15.20;99.90;;;;;;5081971;28;20036;-75
2022/09/12 01:26:44;;;;;;;18.20;14.75;;;15.20;99.90;;;;;;5108549;28;19920;-75
2022/09/12 01:29:28;;;;;;;19.05;15.73;;;15.10;99.90;;;;;;5063582;28;20051;-75
2022/09/12 01:32:38;;;;;;;17.65;15.77;;;15.10;99.90;;;;;;5082603;28;20047;-75
2022/09/12 01:35:23;;;;;;;19.60;16.35;;;15.10;99.90;;;;;;5082712;28;20036;-75
2022/09/12 01:37:52;;;;;;;17.13;15.32;;;15.10;99.90;;;;;;5083897;28;20040;-75
2022/09/12 01:40:24;;;;;;;20.10;17.05;;;15.10;99.90;;;;;;5075093;28;20123;-75
2022/09/12 01:43:17;;;;;;;17.02;15.23;;;15.10;99.90;;;;;;5075906;28;20551;-75
2022/09/12 01:45:58;;;;;;;17.25;15.45;;;15.10;99.90;;;;;;5078631;28;20082;-75
2022/09/12 01:48:40;;;;;;;18.02;16.23;;;15.00;99.90;;;;;;5083973;28;20378;-75
2022/09/12 01:51:10;;;;;;;18.40;16.20;;;15.00;99.90;;;;;;5070031;28;20040;-75
2022/09/12 01:53:41;;;;;;;18.73;16.73;;;15.00;99.90;;;;;;5083604;28;20118;-74
2022/09/12 01:56:10;;;;;;;18.65;16.67;;;15.00;99.90;;;;;;5087248;28;20427;-74
2022/09/12 01:58:52;;;;;;;19.80;17.13;;;14.90;99.90;;;;;;5086155;28;20516;-74
2022/09/12 02:01:31;;;;;;;20.05;16.35;;;14.90;99.90;;;;;;5079352;28;20043;-74
2022/09/12 02:04:07;;;;;;;20.83;17.08;;;14.90;99.90;;;;;;5081490;28;20043;-74
2022/09/12 02:07:12;;;;;;;18.75;16.75;;;14.90;99.90;;;;;;5084774;28;20048;-74
2022/09/12 02:10:02;;;;;;;21.33;17.45;;;14.90;99.90;;;;;;5055731;28;20063;-74
2022/09/12 02:12:35;;;;;;;18.63;16.65;;;14.90;99.90;;;;;;5061080;28;20060;-74
2022/09/12 02:15:06;;;;;;;17.38;15.52;;;14.90;99.90;;;;;;5076306;28;20076;-74
2022/09/12 02:17:41;;;;;;;18.85;16.73;;;14.90;99.90;;;;;;5061653;28;20037;-74
2022/09/12 02:20:29;;;;;;;19.00;16.73;;;14.90;99.90;;;;;;5075272;28;20040;-73
2022/09/12 02:22:56;;;;;;;21.85;17.73;;;14.90;99.90;;;;;;5078017;28;20057;-75
2022/09/12 02:25:25;;;;;;;18.50;16.65;;;14.90;99.90;;;;;;5071626;28;20098;-75
2022/09/12 02:27:59;;;;;;;20.38;18.13;;;14.80;99.90;;;;;;5074569;28;20045;-75
2022/09/12 02:30:30;;;;;;;19.08;16.45;;;14.80;99.90;;;;;;5082403;28;20393;-75
2022/09/12 02:33:04;;;;;;;18.85;16.45;;;14.80;99.90;;;;;;5071171;28;20038;-74
2022/09/12 02:35:32;;;;;;;17.63;15.73;;;14.80;99.90;;;;;;5067621;28;20057;-74
2022/09/12 02:38:13;;;;;;;18.98;16.98;;;14.80;99.90;;;;;;5068743;28;20039;-73
2022/09/12 02:40:40;;;;;;;23.55;17.45;;;14.70;99.90;;;;;;5062145;28;20133;-74
2022/09/12 02:43:06;;;;;;;;;;;14.70;99.90;;;;;;5072211;28;20049;-74
2022/09/12 02:45:33;;;;;;;21.38;18.13;;;14.70;99.90;;;;;;5069352;28;19922;-74
2022/09/12 02:48:28;;;;;;;20.25;16.98;;;14.70;99.90;;;;;;5044187;28;20110;-75
2022/09/12 02:50:54;;;;;;;19.42;17.33;;;14.60;99.90;;;;;;5075147;28;20034;-75
2022/09/12 02:53:21;;;;;;;19.13;16.73;;;14.60;99.90;;;;;;5051293;28;20050;-74
2022/09/12 02:55:47;;;;;;;20.65;17.42;;;14.60;99.90;;;;;;5053141;28;20077;-74
2022/09/12 02:58:19;;;;;;;19.48;16.70;;;14.50;99.90;;;;;;5079113;28;20092;-75
2022/09/12 03:01:04;;;;;;;23.08;17.67;;;14.50;99.90;;;;;;5078011;28;20079;-75
2022/09/12 03:03:48;;;;;;;19.10;16.35;;;14.50;99.90;;;;;;5068465;28;20491;-75
2022/09/12 03:06:30;;;;;;;18.98;16.50;;;14.50;99.90;;;;;;5072262;28;20040;-75
2022/09/12 03:09:18;;;;;;;20.77;16.65;;;14.40;99.90;;;;;;5073293;28;20039;-74
2022/09/12 03:11:59;;;;;;;22.35;17.67;;;14.40;99.90;;;;;;5074326;28;20030;-74
2022/09/12 03:14:46;;;;;;;21.13;17.00;;;14.40;99.90;;;;;;5072519;28;20050;-74
2022/09/12 03:17:41;;;;;;;19.70;17.17;;;14.40;99.90;;;;;;5076573;28;20121;-74
2022/09/12 03:20:13;;;;;;;22.77;18.23;;;14.40;99.90;;;;;;5079297;28;20095;-74
2022/09/12 03:23:12;;;;;;;22.08;17.85;;;14.40;99.90;;;;;;5063010;28;20210;-75
2022/09/12 03:25:49;;;;;;;24.38;18.63;;;14.30;99.90;;;;;;5078719;28;20578;-74
2022/09/12 03:28:17;;;;;;;21.80;16.67;;;14.30;99.90;;;;;;5071930;28;20084;-74
2022/09/12 03:30:47;;;;;;;22.65;18.20;;;14.30;99.90;;;;;;5068809;28;20042;-74
2022/09/12 03:33:18;;;;;;;23.27;18.20;;;14.30;99.90;;;;;;5072013;28;20373;-74
2022/09/12 03:35:45;;;;;;;22.55;17.27;;;14.30;99.90;;;;;;5066856;28;20082;-75
2022/09/12 03:38:11;;;;;;;19.10;15.57;;;14.30;99.90;;;;;;5068860;28;20434;-74
2022/09/12 03:40:38;;;;;;;20.58;16.23;;;14.20;99.90;;;;;;5070231;28;20042;-74
2022/09/12 03:43:06;;;;;;;20.58;15.18;;;14.20;99.90;;;;;;5071422;28;20075;-74
2022/09/12 03:45:32;;;;;;;15.60;13.70;;;14.10;99.90;;;;;;5067553;28;20043;-75
2022/09/12 03:47:58;;;;;;;15.70;14.00;;;14.00;99.90;;;;;;5078948;28;20198;-75
2022/09/12 03:50:23;;;;;;;19.58;15.23;;;13.90;99.90;;;;;;5074175;28;20091;-75
2022/09/12 03:52:49;;;;;;;14.15;12.52;;;13.80;99.90;;;;;;5082621;28;20400;-75
2022/09/12 03:55:15;;;;;;;17.07;13.97;;;13.80;99.90;;;;;;5054992;28;20056;-75
2022/09/12 03:57:40;;;;;;;15.35;13.32;;;13.70;99.90;;;;;;5054211;28;20740;-75
2022/09/12 04:00:10;;;;;;;17.23;13.98;;;13.60;99.90;;;;;;5052054;28;20099;-75
2022/09/12 04:02:35;;;;;;;17.58;15.02;;;13.60;99.90;;;;;;5057127;28;20034;-75
2022/09/12 04:05:01;;;;;;;21.48;16.67;;;13.60;99.90;;;;;;5053569;28;20040;-75
2022/09/12 04:07:27;;;;;;;23.58;16.55;;;13.60;99.90;;;;;;5069024;28;20091;-75
2022/09/12 04:09:53;;;;;;;20.83;16.30;;;13.60;99.90;;;;;;5060398;28;20418;-76
2022/09/12 04:12:20;;;;;;;26.08;19.42;;;13.60;99.90;;;;;;5043197;28;20081;-75
2022/09/12 04:14:45;;;;;;;26.73;20.08;;;13.60;99.90;;;;;;5058559;28;20037;-75
2022/09/12 04:17:11;;;;;;;23.63;17.08;;;13.60;99.90;;;;;;5075615;28;20035;-75
2022/09/12 04:19:37;;;;;;;27.08;18.65;;;13.70;99.90;;;;;;5049924;28;20085;-75
2022/09/12 04:22:05;;;;;;;27.10;19.27;;;13.70;99.90;;;;;;5060607;28;20107;-74
2022/09/12 04:24:31;;;;;;;26.83;20.60;;;13.80;99.90;;;;;;5063343;28;20111;-74
2022/09/12 04:26:57;;;;;;;26.90;19.97;;;13.80;99.90;;;;;;5062728;28;20033;-74
2022/09/12 04:29:22;;;;;;;26.50;19.55;;;13.70;99.90;;;;;;5068269;28;20304;-74
2022/09/12 04:31:48;;;;;;;26.70;19.50;;;13.80;99.90;;;;;;5070021;28;20039;-75
2022/09/12 04:34:14;;;;;;;24.45;19.15;;;13.70;99.90;;;;;;5072728;28;20077;-75
2022/09/12 04:36:40;;;;;;;28.70;19.98;;;13.70;99.90;;;;;;5061588;28;20067;-75
2022/09/12 04:39:06;;;;;;;25.50;19.10;;;13.70;99.90;;;;;;5065301;28;20042;-74
2022/09/12 04:41:37;;;;;;;27.40;19.80;;;13.70;99.90;;;;;;5060325;28;20072;-74
2022/09/12 04:44:14;;;;;;;31.05;21.70;;;13.70;99.90;;;;;;5070285;28;20073;-75
2022/09/12 04:46:44;;;;;;;28.13;21.30;;;13.80;99.90;;;;;;5063135;28;20364;-75
2022/09/12 04:49:10;;;;;;;28.55;21.10;;;13.80;99.90;;;;;;5065071;28;20181;-75
2022/09/12 04:51:38;;;;;;;29.20;21.10;;;13.90;99.90;;;;;;5050332;28;20084;-75
2022/09/12 04:54:10;;;;;;;29.40;21.02;;;13.90;99.90;;;;;;5074230;28;20449;-75
2022/09/12 04:56:38;;;;;;;30.05;20.73;;;13.90;99.90;;;;;;5055165;28;20042;-74
2022/09/12 04:59:05;;;;;;;29.60;21.27;;;13.90;99.90;;;;;;5062807;28;20045;-74
2022/09/12 05:01:30;;;;;;;;;;;14.00;99.90;;;;;;5045123;28;20035;-74
2022/09/12 05:03:58;;;;;;;26.65;20.90;;;14.00;99.90;;;;;;5075414;28;20480;-73
2022/09/12 05:06:27;;;;;;;30.75;21.83;;;14.00;99.90;;;;;;5068205;28;20041;-73
2022/09/12 05:08:53;;;;;;;31.10;22.13;;;14.00;99.90;;;;;;5065410;28;20038;-74
2022/09/12 05:11:21;;;;;;;33.78;22.48;;;14.00;99.90;;;;;;5069857;28;20483;-74
2022/09/12 05:13:47;;;;;;;34.28;22.00;;;14.10;99.90;;;;;;5075168;28;20052;-75
2022/09/12 05:16:14;;;;;;;28.85;21.15;;;14.00;99.90;;;;;;5070606;28;20046;-75
2022/09/12 05:18:41;;;;;;;31.38;23.02;;;14.10;99.90;;;;;;5073565;28;20380;-75
2022/09/12 05:21:10;;;;;;;31.85;23.33;;;14.10;99.90;;;;;;5070391;28;20045;-75
2022/09/12 05:23:36;;;;;;;31.33;23.77;;;14.10;99.90;;;;;;5082330;28;20537;-75
2022/09/12 05:26:03;;;;;;;31.30;23.35;;;14.20;99.90;;;;;;5065225;28;20110;-75
2022/09/12 05:28:31;;;;;;;30.38;21.98;;;14.20;99.90;;;;;;5071740;28;20105;-75
2022/09/12 05:31:04;;;;;;;29.83;21.70;;;14.20;99.90;;;;;;5068836;28;20045;-74
2022/09/12 05:33:31;;;;;;;27.75;21.00;;;14.30;99.90;;;;;;5078067;28;20042;-75
2022/09/12 05:35:57;;;;;;;29.90;22.90;;;14.30;99.90;;;;;;5079944;28;20040;-73
2022/09/12 05:38:23;;;;;;;30.08;21.80;;;14.40;99.90;;;;;;5073769;28;20056;-75
2022/09/12 05:40:50;;;;;;;32.08;23.52;;;14.40;99.90;;;;;;5074249;28;20483;-75
2022/09/12 05:43:16;;;;;;;;;;;14.50;99.90;;;;;;5086240;28;20489;-75
2022/09/12 05:45:42;;;;;;;29.55;20.65;;;14.50;99.90;;;;;;5070092;28;19926;-75
2022/09/12 05:48:07;;;;;;;31.00;20.92;;;14.50;99.90;;;;;;5061415;28;20074;-75
2022/09/12 05:50:33;;;;;;;27.58;20.67;;;14.50;99.90;;;;;;5060744;28;20120;-75
2022/09/12 05:52:59;;;;;;;29.48;21.52;;;14.60;99.90;;;;;;5076330;28;20041;-74
2022/09/12 05:55:25;;;;;;;30.20;21.30;;;14.50;99.90;;;;;;5066896;28;20610;-74
2022/09/12 05:57:50;;;;;;;30.65;21.45;;;14.50;99.90;;;;;;5058443;28;20046;-74
2022/09/12 06:00:18;;;;;;;29.98;21.45;;;14.50;99.90;;;;;;5064552;28;20480;-74
2022/09/12 06:02:43;;;;;;;31.45;21.90;;;14.50;99.90;;;;;;5078455;28;20103;-74
2022/09/12 06:05:09;;;;;;;31.92;22.27;;;14.50;99.90;;;;;;5073846;28;20092;-75
2022/09/12 06:07:35;;;;;;;29.95;21.98;;;14.60;99.90;;;;;;5087038;28;20036;-75
2022/09/12 06:10:02;;;;;;;31.27;22.38;;;14.60;99.90;;;;;;5065884;28;20070;-75
2022/09/12 06:12:29;;;;;;;29.92;22.08;;;14.60;99.90;;;;;;5072853;28;20132;-75
2022/09/12 06:14:55;;;;;;;30.67;22.50;;;14.60;99.90;;;;;;5077938;28;20041;-75
2022/09/12 06:17:21;;;;;;;29.67;21.92;;;14.60;99.90;;;;;;5078544;28;20046;-75
2022/09/12 06:19:49;;;;;;;30.95;22.55;;;14.70;99.90;;;;;;5054133;28;20038;-75
2022/09/12 06:22:17;;;;;;;31.90;22.90;;;14.70;99.90;;;;;;5075318;28;20388;-75
2022/09/12 06:24:43;;;;;;;33.25;23.25;;;14.70;99.90;;;;;;5058171;28;20039;-75
2022/09/12 06:27:09;;;;;;;33.22;23.63;;;14.70;99.90;;;;;;5072371;28;20059;-75
2022/09/12 06:29:34;;;;;;;33.03;23.90;;;14.80;99.90;;;;;;5052444;28;20113;-75
2022/09/12 06:32:00;;;;;;;32.83;24.17;;;14.80;99.90;;;;;;5078046;28;20074;-75
2022/09/12 06:34:26;;;;;;;34.88;24.02;;;14.80;99.90;;;;;;5077495;28;20288;-75
2022/09/12 06:36:52;;;;;;;33.25;23.42;;;14.90;99.90;;;;;;5078116;28;20037;-75
2022/09/12 06:39:20;;;;;;;34.60;23.92;;;14.90;99.90;;;;;;5078001;28;20045;-75
2022/09/12 06:41:48;;;;;;;33.47;24.00;;;15.00;99.90;;;;;;5070209;28;20412;-75
2022/09/12 06:44:21;;;;;;;32.55;22.67;;;15.00;99.90;;;;;;5069625;28;20038;-75
2022/09/12 06:46:47;;;;;;;34.45;23.48;;;15.00;99.90;;;;;;5075378;28;20095;-75
2022/09/12 06:49:13;;;;;;;32.47;23.38;;;15.00;99.90;;;;;;5079819;28;20042;-75
2022/09/12 06:51:40;;;;;;;33.25;23.67;;;15.00;99.90;;;;;;5084750;28;20118;-74
2022/09/12 06:54:06;;;;;;;34.60;24.73;;;15.10;99.90;;;;;;5083507;28;20040;-75
2022/09/12 06:56:33;;;;;;;34.83;24.30;;;15.10;99.90;;;;;;5056291;28;20088;-74
2022/09/12 06:58:59;;;;;;;34.88;25.52;;;15.10;99.90;;;;;;5067367;28;20043;-75
2022/09/12 07:01:27;;;;;;;37.08;25.33;;;15.10;99.90;;;;;;5068098;28;20067;-75
2022/09/12 07:03:58;;;;;;;39.63;25.45;;;15.10;99.90;;;;;;5077597;28;20502;-73
2022/09/12 07:06:30;;;;;;;36.30;25.40;;;15.20;99.90;;;;;;5064932;28;20049;-74
2022/09/12 07:08:58;;;;;;;36.75;25.90;;;15.20;99.90;;;;;;5070414;28;20123;-74
2022/09/12 07:11:26;;;;;;;40.10;26.23;;;15.30;99.90;;;;;;5065771;28;20459;-74
2022/09/12 07:13:54;;;;;;;38.30;26.35;;;15.20;99.90;;;;;;5069676;28;20030;-74
2022/09/12 07:16:19;;;;;;;42.08;28.27;;;15.30;99.90;;;;;;5060739;28;20097;-74
2022/09/12 07:18:53;;;;;;;42.63;28.75;;;15.30;99.90;;;;;;5060247;28;20049;-74
2022/09/12 07:21:19;;;;;;;41.55;27.40;;;15.40;99.90;;;;;;5077725;28;20289;-74
2022/09/12 07:23:45;;;;;;;43.50;29.92;;;15.50;99.90;;;;;;5075695;28;20054;-74
2022/09/12 07:26:13;;;;;;;44.85;29.20;;;15.50;99.90;;;;;;5076442;28;20046;-74
2022/09/12 07:28:39;;;;;;;42.70;28.38;;;15.60;99.90;;;;;;5078903;28;20038;-74
2022/09/12 07:31:17;;;;;;;41.65;27.95;;;15.70;99.90;;;;;;5075624;28;20038;-74
2022/09/12 07:33:43;;;;;;;40.88;27.77;;;15.80;99.90;;;;;;5076324;28;20068;-74
2022/09/12 07:36:11;;;;;;;43.45;28.95;;;15.90;99.90;;;;;;5084752;28;20050;-74
2022/09/12 07:38:40;;;;;;;42.35;28.48;;;16.00;99.90;;;;;;5070122;28;20042;-74
2022/09/12 07:41:22;;;;;;;41.25;28.45;;;16.10;99.90;;;;;;5053585;28;20125;-74
2022/09/12 07:43:52;;;;;;;41.67;28.50;;;16.20;99.90;;;;;;5069630;28;20414;-74
2022/09/12 07:46:18;;;;;;;44.00;29.10;;;16.30;99.90;;;;;;5082203;28;21024;-74
2022/09/12 07:48:47;;;;;;;44.28;28.98;;;16.40;99.90;;;;;;5030593;28;20030;-75
2022/09/12 07:51:13;;;;;;;43.38;29.80;;;16.50;99.90;;;;;;5071607;28;20071;-75
2022/09/12 07:53:42;;;;;;;44.28;29.58;;;16.50;99.90;;;;;;5071819;28;20075;-73
2022/09/12 07:56:09;;;;;;;42.53;28.85;;;16.50;99.90;;;;;;5076683;28;20046;-73
2022/09/12 07:58:36;;;;;;;43.08;29.50;;;16.60;99.90;;;;;;5073804;28;20060;-73
2022/09/12 08:01:17;;;;;;;44.03;29.95;;;16.60;99.90;;;;;;5070504;28;20127;-74
2022/09/12 08:03:44;;;;;;;45.20;30.27;;;16.60;99.90;;;;;;5073154;28;20727;-73
2022/09/12 08:06:13;;;;;;;45.83;30.25;;;16.60;99.90;;;;;;5077471;28;20104;-74
2022/09/12 08:08:39;;;;;;;42.97;29.30;;;16.70;99.90;;;;;;5083950;28;20477;-74
2022/09/12 08:11:10;;;;;;;44.17;29.00;;;16.80;99.90;;;;;;5060418;28;20081;-74
2022/09/12 08:13:38;;;;;;;44.05;29.15;;;16.90;99.90;;;;;;5075991;28;20481;-74
2022/09/12 08:16:12;;;;;;;39.33;28.27;;;17.00;99.90;;;;;;5057485;28;20185;-74
2022/09/12 08:18:38;;;;;;;41.15;28.33;;;17.10;99.90;;;;;;5082244;28;20044;-74
2022/09/12 08:21:06;;;;;;;41.67;27.73;;;17.20;99.90;;;;;;5069556;28;20089;-74
2022/09/12 08:23:32;;;;;;;42.95;28.02;;;17.20;99.90;;;;;;5069087;28;20090;-74
2022/09/12 08:26:01;;;;;;;42.63;28.38;;;17.20;99.90;;;;;;5074821;28;20385;-74
2022/09/12 08:28:27;;;;;;;39.35;27.02;;;17.30;99.90;;;;;;5058434;28;20094;-74
2022/09/12 08:30:58;;;;;;;41.00;28.23;;;17.30;99.90;;;;;;5076079;28;20124;-75
2022/09/12 08:33:26;;;;;;;40.00;27.63;;;17.40;99.90;;;;;;5075897;28;20056;-74
2022/09/12 08:35:51;;;;;;;41.22;27.20;;;17.40;99.90;;;;;;5061905;28;20541;-74
2022/09/12 08:38:18;;;;;;;41.75;27.95;;;17.40;99.90;;;;;;5067553;28;20042;-74
2022/09/12 08:40:56;;;;;;;39.22;27.35;;;17.50;99.90;;;;;;5053826;28;20102;-74
2022/09/12 08:43:52;;;;;;;38.92;27.20;;;17.60;99.90;;;;;;5075711;28;20384;-74
2022/09/12 08:46:58;;;;;;;40.53;27.20;;;17.70;99.90;;;;;;5070936;28;20046;-74
2022/09/12 08:49:50;;;;;;;38.38;26.83;;;17.90;99.90;;;;;;5061054;28;20457;-74
2022/09/12 08:52:26;;;;;;;40.03;26.65;;;18.00;99.90;;;;;;5053051;28;20046;-74
2022/09/12 08:54:53;;;;;;;38.10;26.98;;;18.20;99.90;;;;;;5086515;28;20481;-74
2022/09/12 08:57:19;;;;;;;39.05;25.92;;;18.30;99.90;;;;;;5056072;28;20039;-74
2022/09/12 08:59:45;;;;;;;38.05;26.27;;;18.30;99.90;;;;;;5063019;28;20479;-74
2022/09/12 09:02:42;;;;;;;34.15;23.90;;;18.30;99.90;;;;;;5070850;28;20517;-73
2022/09/12 09:05:46;;;;;;;35.83;24.58;;;18.40;99.90;;;;;;5055842;28;20121;-73
2022/09/12 09:09:04;;;;;;;34.35;24.63;;;18.50;99.90;;;;;;5068260;28;20387;-73
2022/09/12 09:11:36;;;;;;;36.58;25.13;;;18.60;99.90;;;;;;5024865;28;20376;-74
2022/09/12 09:14:49;;;;;;;34.03;23.60;;;18.80;99.90;;;;;;5064188;28;20386;-74
2022/09/12 09:17:31;;;;;;;32.13;23.13;;;19.00;99.90;;;;;;5032303;28;20049;-74
2022/09/12 09:20:26;;;;;;;32.08;23.52;;;19.60;99.90;;;;;;5074296;28;20410;-74
2022/09/12 09:22:54;;;;;;;31.42;21.67;;;20.20;99.90;;;;;;5063580;28;20050;-74
2022/09/12 09:25:42;;;;;;;29.60;21.55;;;20.50;99.90;;;;;;5059237;28;20064;-74
2022/09/12 09:28:25;;;;;;;29.25;21.70;;;20.80;99.90;;;;;;5068942;28;20052;-74
2022/09/12 09:30:51;;;;;;;31.60;21.90;;;21.10;99.90;;;;;;5072604;28;20364;-74
2022/09/12 09:33:33;;;;;;;32.00;22.05;;;21.10;99.90;;;;;;5059585;28;20049;-74
2022/09/12 09:36:02;;;;;;;29.42;21.45;;;21.10;99.90;;;;;;5073503;28;20198;-74
2022/09/12 09:38:46;;;;;;;28.30;19.98;;;21.40;99.90;;;;;;5076960;28;20119;-74
2022/09/12 09:41:51;;;;;;;29.85;20.95;;;21.70;99.90;;;;;;5071857;28;20386;-74
2022/09/12 09:44:17;;;;;;;28.90;20.25;;;22.00;99.90;;;;;;5023815;28;20066;-74
2022/09/12 09:46:43;;;;;;;32.72;21.60;;;22.40;99.90;;;;;;5069230;28;20041;-74
2022/09/12 09:49:13;;;;;;;30.33;20.33;;;22.60;99.90;;;;;;5082532;28;20125;-74
2022/09/12 09:51:41;;;;;;;28.73;20.05;;;22.90;99.90;;;;;;5064567;28;20042;-73
2022/09/12 09:54:20;;;;;;;29.58;20.05;;;23.40;99.90;;;;;;5086701;28;20046;-74
2022/09/12 09:56:46;;;;;;;29.73;20.30;;;23.80;99.90;;;;;;5063876;28;20045;-73
2022/09/12 09:59:17;;;;;;;31.77;19.85;;;24.10;99.90;;;;;;5078461;28;20042;-74
2022/09/12 10:01:54;;;;;;;29.77;19.33;;;24.50;99.90;;;;;;5078220;28;20150;-74
2022/09/12 10:04:28;;;;;;;28.42;19.67;;;25.10;99.90;;;;;;5067237;28;20055;-74
2022/09/12 10:07:00;;;;;;;31.73;20.63;;;25.50;99.90;;;;;;5065515;28;20049;-75
2022/09/12 10:09:28;;;;;;;29.05;19.90;;;25.80;99.90;;;;;;5077285;28;20042;-75
2022/09/12 10:11:55;;;;;;;31.92;21.17;;;26.10;99.90;;;;;;5060779;28;20050;-75
2022/09/12 10:14:41;;;;;;;30.05;20.25;;;26.40;99.90;;;;;;5077394;28;20072;-75
2022/09/12 10:17:33;;;;;;;29.60;20.08;;;26.50;99.90;;;;;;5070837;28;20145;-75
2022/09/12 10:19:59;;;;;;;28.75;19.63;;;26.90;99.90;;;;;;5040127;28;20085;-75
2022/09/12 10:22:28;;;;;;;29.02;19.77;;;27.00;99.90;;;;;;5066034;28;20074;-75
2022/09/12 10:24:57;;;;;;;27.83;18.02;;;27.20;99.90;;;;;;5077334;28;20122;-74
2022/09/12 10:27:29;;;;;;;28.35;17.70;;;27.40;99.90;;;;;;5065426;28;20042;-75
2022/09/12 10:30:04;;;;;;;22.88;16.35;;;27.50;99.90;;;;;;5065302;28;20041;-75
2022/09/12 10:32:40;;;;;;;26.40;17.63;;;27.80;99.90;;;;;;5077598;28;20049;-75
2022/09/12 10:35:32;;;;;;;23.80;17.20;;;27.70;99.90;;;;;;5059539;28;20490;-75
2022/09/12 10:38:02;;;;;;;23.58;15.85;;;27.50;99.90;;;;;;5058151;28;20061;-76
2022/09/12 10:40:38;;;;;;;21.95;15.40;;;27.20;99.90;;;;;;5060853;28;20073;-74
2022/09/12 10:43:29;;;;;;;22.98;14.00;;;27.20;99.90;;;;;;5075143;28;20062;-75
2022/09/12 10:46:14;;;;;;;20.35;14.73;;;27.40;99.80;;;;;;5067344;28;20510;-74
2022/09/12 10:48:41;;;;;;;23.20;16.52;;;27.60;99.90;;;;;;5075950;28;20040;-74
2022/09/12 10:51:23;;;;;;;21.92;15.10;;;27.60;99.70;;;;;;5071400;28;20047;-74
2022/09/12 10:53:50;;;;;;;25.60;16.92;;;28.00;99.60;;;;;;5077049;28;20042;-75
2022/09/12 10:56:41;;;;;;;25.67;16.48;;;28.20;99.50;;;;;;5087992;28;20044;-75
2022/09/12 10:59:07;;;;;;;21.77;16.02;;;28.20;98.50;;;;;;5040313;28;20054;-74
2022/09/12 11:01:40;;;;;;;25.92;16.83;;;28.60;98.30;;;;;;5062869;28;20082;-75
2022/09/12 11:04:45;;;;;;;25.23;16.20;;;28.30;98.30;;;;;;5046169;28;20046;-75
2022/09/12 11:07:57;;;;;;;21.02;14.13;;;28.60;98.70;;;;;;5074543;28;20042;-75
2022/09/12 11:10:55;;;;;;;17.92;12.15;;;29.00;97.90;;;;;;5043524;28;20058;-75
2022/09/12 11:13:49;;;;;;;21.45;14.70;;;29.00;96.40;;;;;;5059293;28;20355;-75
2022/09/12 11:16:48;;;;;;;20.90;14.00;;;29.10;97.10;;;;;;5057063;28;20093;-75
2022/09/12 11:19:51;;;;;;;19.77;12.70;;;28.90;97.20;;;;;;5077861;28;20050;-74
2022/09/12 11:22:32;;;;;;;18.60;12.48;;;29.20;97.40;;;;;;5067359;28;20064;-75
2022/09/12 11:25:26;;;;;;;14.35;10.48;;;29.50;97.90;;;;;;5064785;28;20037;-75
2022/09/12 11:28:04;;;;;;;14.35;9.98;;;29.70;97.00;;;;;;5060308;28;20091;-75
2022/09/12 11:30:47;;;;;;;12.82;9.80;;;29.80;97.00;;;;;;5085316;28;20044;-75
2022/09/12 11:33:40;;;;;;;15.88;10.90;;;29.90;95.90;;;;;;5073378;28;20046;-75
2022/09/12 11:36:22;;;;;;;13.60;8.60;;;30.20;95.80;;;;;;5066931;28;20129;-75
2022/09/12 11:39:02;;;;;;;11.93;6.95;;;30.10;96.20;;;;;;5064832;28;20045;-75
2022/09/12 11:41:36;;;;;;;10.88;7.60;;;30.10;95.10;;;;;;5065110;28;20069;-75
2022/09/12 11:44:47;;;;;;;8.40;6.97;;;30.00;95.50;;;;;;5073056;28;20045;-75
2022/09/12 11:47:13;;;;;;;9.68;7.13;;;30.20;95.60;;;;;;5068365;28;20046;-75
2022/09/12 11:49:39;;;;;;;11.48;6.15;;;30.40;95.60;;;;;;5076904;28;20141;-75
2022/09/12 11:52:14;;;;;;;10.98;7.72;;;30.40;94.90;;;;;;5084050;28;20115;-75
2022/09/12 11:54:47;;;;;;;11.13;7.05;;;30.30;95.00;;;;;;5073777;28;20168;-75
2022/09/12 11:57:32;;;;;;;10.57;7.80;;;30.30;95.60;;;;;;5065229;28;20046;-74
2022/09/12 12:00:04;;;;;;;12.32;8.70;;;30.50;94.60;;;;;;5046894;28;20064;-74
2022/09/12 12:02:48;;;;;;;10.80;7.80;;;30.40;94.50;;;;;;5053819;28;20121;-75
2022/09/12 12:05:19;;;;;;;10.70;8.60;;;30.50;94.90;;;;;;5066593;28;20038;-76
2022/09/12 12:07:55;;;;;;;10.00;7.70;;;30.40;94.30;;;;;;5069846;28;20041;-74
2022/09/12 12:10:35;;;;;;;11.65;8.25;;;30.40;94.20;;;;;;5064218;28;20046;-75
2022/09/12 12:13:26;;;;;;;9.85;6.72;;;30.20;94.50;;;;;;5054000;28;20384;-75
2022/09/12 12:16:11;;;;;;;9.32;5.85;;;30.00;94.40;;;;;;5049605;28;20053;-74
2022/09/12 12:18:39;;;;;;;8.68;6.05;;;29.40;94.20;;;;;;5073699;28;20050;-75
2022/09/12 12:21:28;;;;;;;7.15;5.63;;;29.10;94.70;;;;;;5076463;28;20604;-75
2022/09/12 12:24:22;;;;;;;8.23;5.40;;;28.90;95.10;;;;;;5079025;28;20110;-75
2022/09/12 12:26:56;;;;;;;8.20;4.53;;;29.40;95.10;;;;;;5070307;28;20049;-75
2022/09/12 12:29:22;;;;;;;6.80;4.53;;;29.30;94.50;;;;;;5055893;28;20065;-75
2022/09/12 12:32:02;;;;;;;5.85;4.10;;;29.50;94.50;;;;;;5080777;28;20042;-75
2022/09/12 12:34:32;;;;;;;5.13;3.80;;;29.70;93.80;;;;;;5078338;28;20035;-75
2022/09/12 12:37:18;;;;;;;5.45;3.50;;;29.50;93.30;;;;;;5075046;28;20042;-75
2022/09/12 12:39:48;;;;;;;5.30;3.70;;;29.40;93.20;;;;;;5063712;28;20406;-75
2022/09/12 12:42:32;;;;;;;4.82;3.83;;;29.30;93.50;;;;;;5063817;28;20046;-75
2022/09/12 12:44:59;;;;;;;7.00;4.00;;;29.20;93.00;;;;;;5071193;28;20126;-74
2022/09/12 12:47:32;;;;;;;5.53;3.60;;;29.10;93.50;;;;;;5061261;28;20042;-74
2022/09/12 12:50:00;;;;;;;5.75;4.30;;;29.10;93.90;;;;;;5078277;28;20042;-75
2022/09/12 12:52:41;;;;;;;8.43;3.90;;;29.20;93.30;;;;;;5063403;28;20034;-74
2022/09/12 12:55:14;;;;;;;5.03;3.85;;;29.30;93.80;;;;;;5072778;28;20046;-74
2022/09/12 12:57:49;;;;;;;6.47;4.18;;;29.30;93.80;;;;;;5073355;28;20046;-74
2022/09/12 13:00:25;;;;;;;8.45;4.10;;;29.00;93.70;;;;;;5068749;28;20060;-74
2022/09/12 13:03:06;;;;;;;5.22;4.00;;;29.00;93.90;;;;;;5075872;28;20042;-74